Time;durP1;ratioP1;P1;durP2;ratioP2;P2;SDS_P1;SDS_P2;PMS_P1;PMS_P2;Temp;Humidity;BMP_temperature;BMP_pressure;BME280_temperature;BME280_humidity;BME280_pressure;Samples;Min_cycle;Max_cycle;Signal;HPM_P1;HPM_P2
2022/11/29 00:01:34;;;;;;;100.55;16.10;;;8.80;99.90;;;;;;5072937;28;20413;-79
2022/11/29 00:04:01;;;;;;;125.93;16.98;;;8.80;99.90;;;;;;5038023;28;20388;-80
2022/11/29 00:06:29;;;;;;;96.93;15.27;;;8.80;99.90;;;;;;5072044;28;20204;-79
2022/11/29 00:08:57;;;;;;;101.40;17.30;;;8.80;99.90;;;;;;5072006;28;20078;-77
2022/11/29 00:14:14;;;;;;;92.75;16.10;;;8.80;99.90;;;;;;5054578;28;20044;-80
2022/11/29 00:16:40;;;;;;;107.70;16.33;;;8.80;99.90;;;;;;5054273;28;20381;-81
2022/11/29 00:19:07;;;;;;;143.98;16.85;;;8.80;99.90;;;;;;5021858;28;20064;-77
2022/11/29 00:21:32;;;;;;;96.93;16.15;;;8.80;99.90;;;;;;5038855;28;20204;-80
2022/11/29 00:23:58;;;;;;;109.28;15.48;;;8.70;99.90;;;;;;5056519;28;20084;-79
2022/11/29 00:26:24;;;;;;;92.60;16.13;;;8.70;99.90;;;;;;5073641;28;20439;-80
2022/11/29 00:28:50;;;;;;;110.45;16.88;;;8.80;99.90;;;;;;5074042;28;20056;-79
2022/11/29 00:31:25;;;;;;;109.90;18.13;;;8.80;99.90;;;;;;5074028;28;20135;-79
2022/11/29 00:33:51;;;;;;;80.85;15.63;;;8.70;99.90;;;;;;5057424;28;20044;-79
2022/11/29 00:36:18;;;;;;;90.82;15.75;;;8.80;99.90;;;;;;5079559;28;20051;-78
2022/11/29 00:38:44;;;;;;;103.57;16.40;;;8.70;99.90;;;;;;5088393;28;20036;-78
2022/11/29 00:41:10;;;;;;;98.82;15.23;;;8.70;99.90;;;;;;5076058;28;20392;-75
2022/11/29 00:43:36;;;;;;;92.70;15.32;;;8.70;99.90;;;;;;5073184;28;20053;-77
2022/11/29 00:46:03;;;;;;;130.25;15.15;;;8.70;99.90;;;;;;5054157;28;20044;-78
2022/11/29 00:48:29;;;;;;;114.43;16.98;;;8.80;99.90;;;;;;5054029;28;20488;-78
2022/11/29 00:50:55;;;;;;;97.88;15.02;;;8.80;99.90;;;;;;5072184;28;20094;-75
2022/11/29 00:53:21;;;;;;;138.10;15.90;;;8.70;99.90;;;;;;5054333;28;20080;-78
2022/11/29 00:55:47;;;;;;;119.22;15.75;;;8.80;99.90;;;;;;5056218;28;20084;-78
2022/11/29 00:58:13;;;;;;;102.32;14.88;;;8.80;99.90;;;;;;5057840;28;20052;-78
2022/11/29 01:00:39;;;;;;;175.70;17.63;;;8.70;99.90;;;;;;5075248;28;20114;-78
2022/11/29 01:03:05;;;;;;;118.32;15.82;;;8.80;99.90;;;;;;5057356;28;20127;-78
2022/11/29 01:05:31;;;;;;;185.40;18.70;;;8.80;99.90;;;;;;5057100;28;20109;-77
2022/11/29 01:07:57;;;;;;;130.40;18.33;;;8.80;99.90;;;;;;5056974;28;20048;-79
2022/11/29 01:10:23;;;;;;;220.52;20.63;;;8.80;99.90;;;;;;5074852;28;20067;-79
2022/11/29 01:12:49;;;;;;;134.75;18.08;;;8.80;99.90;;;;;;5057460;28;20049;-79
2022/11/29 01:15:15;;;;;;;104.72;16.05;;;8.80;99.90;;;;;;5056880;28;20057;-78
2022/11/29 01:17:41;;;;;;;108.25;15.65;;;8.70;99.90;;;;;;5056740;28;20040;-78
2022/11/29 01:20:10;;;;;;;210.73;15.77;;;8.70;99.90;;;;;;5060698;28;20079;-80
2022/11/29 01:22:37;;;;;;;111.30;13.85;;;8.70;99.90;;;;;;5075559;28;20385;-79
2022/11/29 01:25:04;;;;;;;75.53;12.18;;;8.60;99.90;;;;;;5061593;28;20048;-80
2022/11/29 01:27:31;;;;;;;73.93;10.40;;;8.50;99.90;;;;;;5075755;28;20048;-77
2022/11/29 01:29:56;;;;;;;66.18;10.68;;;8.50;99.90;;;;;;5057719;28;20090;-78
2022/11/29 01:32:22;;;;;;;53.40;10.45;;;8.50;99.90;;;;;;5078419;28;20104;-80
2022/11/29 01:34:48;;;;;;;54.28;10.05;;;8.50;99.90;;;;;;5081759;28;20044;-78
2022/11/29 01:37:14;;;;;;;51.97;9.85;;;8.40;99.90;;;;;;5075624;28;20045;-77
2022/11/29 01:39:39;;;;;;;61.10;10.43;;;8.40;99.90;;;;;;5024058;28;20055;-76
2022/11/29 01:42:05;;;;;;;100.57;11.20;;;8.40;99.90;;;;;;5040187;28;20060;-79
2022/11/29 01:44:31;;;;;;;85.32;11.05;;;8.30;99.90;;;;;;5056416;28;20091;-78
2022/11/29 01:46:56;;;;;;;61.22;11.02;;;8.30;99.90;;;;;;5074047;28;20176;-77
2022/11/29 01:49:27;;;;;;;59.47;11.55;;;8.30;99.90;;;;;;5040023;28;20049;-78
2022/11/29 01:52:08;;;;;;;80.80;12.55;;;8.30;99.90;;;;;;5040077;28;20400;-78
2022/11/29 01:54:38;;;;;;;54.88;10.95;;;8.30;99.90;;;;;;5074180;28;20052;-76
2022/11/29 01:57:07;;;;;;;81.35;12.13;;;8.20;99.90;;;;;;5056218;28;20044;-80
2022/11/29 01:59:34;;;;;;;52.25;10.48;;;8.20;99.90;;;;;;5056098;28;20132;-76
2022/11/29 02:02:05;;;;;;;48.50;11.52;;;8.20;99.90;;;;;;5056105;28;20116;-77
2022/11/29 02:04:35;;;;;;;53.13;11.00;;;8.20;99.90;;;;;;5074823;28;20045;-80
2022/11/29 02:07:01;;;;;;;66.32;11.85;;;8.20;99.90;;;;;;5055667;28;20052;-77
2022/11/29 02:09:27;;;;;;;72.78;10.82;;;8.20;99.90;;;;;;5073978;28;20106;-79
2022/11/29 02:12:11;;;;;;;49.63;10.38;;;8.20;99.90;;;;;;5039437;28;20495;-79
2022/11/29 02:14:56;;;;;;;58.85;11.15;;;8.20;99.90;;;;;;5039744;28;20135;-76
2022/11/29 02:17:21;;;;;;;181.35;15.63;;;8.20;99.90;;;;;;5056480;28;20063;-76
2022/11/29 02:20:25;;;;;;;205.45;15.77;;;8.10;99.90;;;;;;5055785;28;20048;-77
2022/11/29 02:23:23;;;;;;;211.82;16.30;;;8.00;99.90;;;;;;5073506;28;20193;-79
2022/11/29 02:26:01;;;;;;;88.97;11.93;;;8.00;99.90;;;;;;5055271;28;20496;-79
2022/11/29 02:28:50;;;;;;;68.63;11.80;;;8.00;99.90;;;;;;5073580;28;20052;-78
2022/11/29 02:31:22;;;;;;;78.50;12.77;;;8.00;99.90;;;;;;5073476;28;20130;-78
2022/11/29 02:34:19;;;;;;;77.60;12.32;;;8.00;99.90;;;;;;5073094;28;20052;-79
2022/11/29 02:36:54;;;;;;;157.10;15.52;;;8.00;99.90;;;;;;5058595;28;20064;-79
2022/11/29 02:39:36;;;;;;;79.63;13.70;;;8.10;99.90;;;;;;5073038;28;20048;-80
2022/11/29 02:42:14;;;;;;;116.22;14.55;;;8.10;99.90;;;;;;5073993;28;20068;-80
2022/11/29 02:45:29;;;;;;;59.95;12.60;;;8.10;99.90;;;;;;5073185;28;20070;-74
2022/11/29 02:48:27;;;;;;;81.00;12.63;;;8.10;99.90;;;;;;4975780;28;20058;-80
2022/11/29 02:51:16;;;;;;;82.28;12.70;;;8.10;99.90;;;;;;4959912;28;20066;-78
2022/11/29 02:54:00;;;;;;;62.03;12.77;;;8.10;99.90;;;;;;5066489;28;20065;-74
2022/11/29 02:56:49;;;;;;;102.60;13.68;;;8.10;99.90;;;;;;5022021;28;20056;-73
2022/11/29 02:59:54;;;;;;;111.47;14.35;;;8.10;99.90;;;;;;5054834;28;20392;-74
2022/11/29 03:02:47;;;;;;;58.72;12.55;;;8.10;99.90;;;;;;5072597;28;20226;-75
2022/11/29 03:05:34;;;;;;;68.30;11.77;;;8.10;99.90;;;;;;5022631;28;20048;-73
2022/11/29 03:08:22;;;;;;;203.02;16.13;;;8.10;99.90;;;;;;5055417;28;20383;-73
2022/11/29 03:11:11;;;;;;;52.95;11.10;;;8.00;99.90;;;;;;5024223;28;20052;-79
2022/11/29 03:14:15;;;;;;;65.28;12.52;;;8.10;99.90;;;;;;5073450;28;20360;-73
2022/11/29 03:16:52;;;;;;;59.78;12.32;;;8.10;99.90;;;;;;5072555;28;20048;-74
2022/11/29 03:19:55;;;;;;;58.42;12.57;;;8.00;99.90;;;;;;5054395;28;20052;-74
2022/11/29 03:22:46;;;;;;;77.70;12.88;;;8.10;99.90;;;;;;5051204;28;20056;-79
2022/11/29 03:25:37;;;;;;;103.75;14.07;;;8.10;99.90;;;;;;5051479;28;20053;-74
2022/11/29 03:28:18;;;;;;;67.15;12.60;;;8.00;99.90;;;;;;5051323;28;20053;-74
2022/11/29 03:31:23;;;;;;;59.17;12.55;;;8.10;99.90;;;;;;5052361;28;20090;-74
2022/11/29 03:34:09;;;;;;;61.60;12.02;;;8.10;99.90;;;;;;5010286;28;20559;-73
2022/11/29 03:36:44;;;;;;;133.52;14.50;;;8.10;99.90;;;;;;5033024;28;20056;-72
2022/11/29 03:39:20;;;;;;;126.25;15.60;;;8.10;99.90;;;;;;5051078;28;20384;-77
2022/11/29 03:41:54;;;;;;;63.22;12.85;;;8.10;99.90;;;;;;5034903;28;20053;-73
2022/11/29 03:44:44;;;;;;;68.63;13.40;;;8.10;99.90;;;;;;5050745;28;20477;-74
2022/11/29 03:47:17;;;;;;;64.07;12.07;;;8.10;99.90;;;;;;5052633;28;20132;-72
2022/11/29 03:49:58;;;;;;;51.72;11.85;;;8.10;99.90;;;;;;5051416;28;20053;-73
2022/11/29 03:52:52;;;;;;;158.90;16.20;;;8.10;99.90;;;;;;5050585;28;20045;-73
2022/11/29 03:55:30;;;;;;;96.97;14.23;;;8.10;99.90;;;;;;5051026;28;20110;-73
2022/11/29 03:58:27;;;;;;;167.57;16.77;;;8.00;99.90;;;;;;5050968;28;20492;-72
2022/11/29 04:01:20;;;;;;;85.38;13.13;;;8.00;99.90;;;;;;5052047;28;20080;-75
2022/11/29 04:04:01;;;;;;;58.28;11.52;;;8.00;99.90;;;;;;5051208;28;20056;-75
2022/11/29 04:06:53;;;;;;;90.35;12.60;;;8.00;99.90;;;;;;5052302;28;20127;-73
2022/11/29 04:09:50;;;;;;;74.70;12.30;;;8.00;99.90;;;;;;5035715;28;20061;-73
2022/11/29 04:12:53;;;;;;;60.72;13.18;;;7.90;99.90;;;;;;5050885;28;20128;-76
2022/11/29 04:15:46;;;;;;;53.00;11.48;;;8.00;99.90;;;;;;5050867;28;20183;-75
2022/11/29 04:18:42;;;;;;;50.05;11.02;;;7.90;99.90;;;;;;5052884;28;20049;-74
2022/11/29 04:21:22;;;;;;;59.80;11.98;;;7.90;99.90;;;;;;5053609;28;20138;-78
2022/11/29 04:24:03;;;;;;;50.42;11.88;;;7.90;99.90;;;;;;5053992;28;20052;-75
2022/11/29 04:27:04;;;;;;;53.42;11.30;;;7.80;99.90;;;;;;5071768;28;20040;-74
2022/11/29 04:30:05;;;;;;;73.60;12.25;;;7.90;99.90;;;;;;5073161;28;20055;-74
2022/11/29 04:32:38;;;;;;;52.50;11.43;;;7.90;99.90;;;;;;5076051;28;20045;-73
2022/11/29 04:35:41;;;;;;;178.07;16.23;;;7.90;99.90;;;;;;5057859;28;20056;-76
2022/11/29 04:38:30;;;;;;;60.80;12.05;;;7.80;99.90;;;;;;5058403;28;20137;-73
2022/11/29 04:41:26;;;;;;;69.93;12.93;;;7.80;99.90;;;;;;5064857;28;20086;-76
2022/11/29 04:44:23;;;;;;;126.18;14.73;;;7.80;99.90;;;;;;5075443;28;20048;-74
2022/11/29 04:46:58;;;;;;;73.20;12.45;;;7.80;99.90;;;;;;5058311;28;20052;-78
2022/11/29 04:49:48;;;;;;;93.55;14.10;;;7.80;99.90;;;;;;5075397;28;20075;-73
2022/11/29 04:52:38;;;;;;;58.17;11.93;;;7.80;99.90;;;;;;5075169;28;20055;-79
2022/11/29 04:55:16;;;;;;;190.27;15.90;;;7.80;99.90;;;;;;5058162;28;20483;-74
2022/11/29 04:58:10;;;;;;;76.28;13.05;;;7.80;99.90;;;;;;5057247;28;20059;-74
2022/11/29 05:00:53;;;;;;;72.72;12.90;;;7.80;99.90;;;;;;5057744;28;20099;-74
2022/11/29 05:04:14;;;;;;;64.70;11.75;;;7.80;99.90;;;;;;5057933;28;20540;-74
2022/11/29 05:07:06;;;;;;;120.35;14.40;;;7.90;99.90;;;;;;4977599;28;20046;-73
2022/11/29 05:09:46;;;;;;;96.40;13.95;;;7.90;99.90;;;;;;5057456;28;20405;-73
2022/11/29 05:12:28;;;;;;;72.20;12.52;;;7.80;99.90;;;;;;5075007;28;20124;-76
2022/11/29 05:15:19;;;;;;;99.53;14.07;;;7.80;99.90;;;;;;5040897;28;20048;-77
2022/11/29 05:18:09;;;;;;;72.47;12.18;;;7.80;99.90;;;;;;5056968;28;20055;-75
2022/11/29 05:20:40;;;;;;;79.15;12.60;;;7.70;99.90;;;;;;5074763;28;20064;-78
2022/11/29 05:23:27;;;;;;;134.80;13.80;;;7.70;99.90;;;;;;5074447;28;20408;-75
2022/11/29 05:26:02;;;;;;;83.32;11.73;;;7.70;99.90;;;;;;5074900;28;20522;-74
2022/11/29 05:28:38;;;;;;;83.40;11.05;;;7.70;99.90;;;;;;5074672;28;20080;-74
2022/11/29 05:31:32;;;;;;;96.47;12.82;;;7.70;99.90;;;;;;5075378;28;20449;-74
2022/11/29 05:34:26;;;;;;;124.20;13.07;;;7.60;99.90;;;;;;5074708;28;20388;-74
2022/11/29 05:37:07;;;;;;;116.57;14.40;;;7.60;99.90;;;;;;5074748;28;20073;-73
2022/11/29 05:40:13;;;;;;;177.35;15.02;;;7.50;99.90;;;;;;5040217;28;20127;-75
2022/11/29 05:43:27;;;;;;;123.03;12.77;;;7.50;99.90;;;;;;5039556;28;20056;-77
2022/11/29 05:46:19;;;;;;;104.25;11.40;;;7.50;99.90;;;;;;5039261;28;20441;-75
2022/11/29 05:49:07;;;;;;;177.95;13.57;;;7.50;99.90;;;;;;5024604;28;20049;-75
2022/11/29 05:51:43;;;;;;;70.63;9.82;;;7.40;99.90;;;;;;5074801;28;20119;-74
2022/11/29 05:54:36;;;;;;;77.00;11.13;;;7.50;99.90;;;;;;5056692;28;20519;-75
2022/11/29 05:57:26;;;;;;;172.57;13.45;;;7.50;99.90;;;;;;5056607;28;20066;-75
2022/11/29 05:59:54;;;;;;;75.50;9.70;;;7.40;99.90;;;;;;5056670;28;20036;-74
2022/11/29 06:02:26;;;;;;;130.18;12.20;;;7.30;99.90;;;;;;5056047;28;20048;-73
2022/11/29 06:04:54;;;;;;;103.35;10.68;;;7.40;99.90;;;;;;5074007;28;20048;-74
2022/11/29 06:07:31;;;;;;;107.30;11.48;;;7.40;99.90;;;;;;5039331;28;20397;-79
2022/11/29 06:10:10;;;;;;;92.15;10.40;;;7.30;99.90;;;;;;5073541;28;20044;-74
2022/11/29 06:12:36;;;;;;;267.98;15.45;;;7.30;99.90;;;;;;5074444;28;20337;-75
2022/11/29 06:15:34;;;;;;;97.57;10.23;;;7.30;99.90;;;;;;5055895;28;20087;-76
2022/11/29 06:18:30;;;;;;;187.18;13.23;;;7.20;99.90;;;;;;5073916;28;20044;-75
2022/11/29 06:21:12;;;;;;;146.57;12.55;;;7.20;99.90;;;;;;5056504;28;20123;-75
2022/11/29 06:24:01;;;;;;;185.63;13.38;;;7.20;99.90;;;;;;5052290;28;20456;-75
2022/11/29 06:26:45;;;;;;;143.55;11.27;;;7.20;99.90;;;;;;5052818;28;20064;-75
2022/11/29 06:29:41;;;;;;;125.03;11.77;;;7.20;99.90;;;;;;5052204;28;20045;-74
2022/11/29 06:32:16;;;;;;;166.10;12.65;;;7.20;99.90;;;;;;5052523;28;20381;-74
2022/11/29 06:34:58;;;;;;;174.10;13.00;;;7.20;99.90;;;;;;5053661;28;20131;-75
2022/11/29 06:37:31;;;;;;;224.65;14.25;;;7.20;99.90;;;;;;5053158;28;20135;-79
2022/11/29 06:39:57;;;;;;;141.52;12.38;;;7.20;99.90;;;;;;5052011;28;20487;-73
2022/11/29 06:42:23;;;;;;;183.75;14.30;;;7.20;99.90;;;;;;5053014;28;20055;-73
2022/11/29 06:44:49;;;;;;;77.05;11.07;;;7.20;99.90;;;;;;5035346;28;20124;-73
2022/11/29 06:47:32;;;;;;;224.27;14.90;;;7.30;99.90;;;;;;5053011;28;20144;-75
2022/11/29 06:50:02;;;;;;;64.15;10.40;;;7.20;99.90;;;;;;5019670;28;20439;-75
2022/11/29 06:52:53;;;;;;;330.17;17.45;;;7.20;99.90;;;;;;5051110;28;20488;-73
2022/11/29 06:55:28;;;;;;;265.13;14.45;;;7.30;99.90;;;;;;5053441;28;20386;-74
2022/11/29 06:57:59;;;;;;;121.85;12.13;;;7.30;99.90;;;;;;5052123;28;20049;-74
2022/11/29 07:00:32;;;;;;;84.30;12.30;;;7.30;99.90;;;;;;5051642;28;20543;-74
2022/11/29 07:03:11;;;;;;;83.55;10.88;;;7.30;99.90;;;;;;5052054;28;20128;-74
2022/11/29 07:05:38;;;;;;;102.95;12.35;;;7.30;99.90;;;;;;5035184;28;20045;-74
2022/11/29 07:08:14;;;;;;;142.67;13.87;;;7.40;99.90;;;;;;5052389;28;20041;-73
2022/11/29 07:10:41;;;;;;;169.70;12.13;;;7.30;99.90;;;;;;5035130;28;20492;-73
2022/11/29 07:13:09;;;;;;;75.47;10.73;;;7.40;99.90;;;;;;5052651;28;20056;-73
2022/11/29 07:15:36;;;;;;;72.05;10.18;;;7.40;99.90;;;;;;5034542;28;20044;-76
2022/11/29 07:18:20;;;;;;;;;;;7.40;99.90;;;;;;5052930;28;20125;-74
2022/11/29 07:21:06;;;;;;;257.73;14.52;;;7.40;99.90;;;;;;5051941;28;20395;-74
2022/11/29 07:23:42;;;;;;;81.22;11.55;;;7.40;99.90;;;;;;5070445;28;20471;-73
2022/11/29 07:26:28;;;;;;;88.85;10.85;;;7.30;99.90;;;;;;5038342;28;20128;-78
2022/11/29 07:29:02;;;;;;;94.57;11.05;;;7.30;99.90;;;;;;5055003;28;20048;-74
2022/11/29 07:31:59;;;;;;;346.88;17.20;;;7.30;99.90;;;;;;5072808;28;20048;-74
2022/11/29 07:34:55;;;;;;;107.72;10.82;;;7.40;99.90;;;;;;5054601;28;20067;-74
2022/11/29 07:37:35;;;;;;;80.20;11.85;;;7.30;99.90;;;;;;5030958;28;20064;-79
2022/11/29 07:40:10;;;;;;;112.78;12.05;;;7.40;99.90;;;;;;5072518;28;20120;-74
2022/11/29 07:42:44;;;;;;;183.75;15.07;;;7.40;99.90;;;;;;5072776;28;20468;-74
2022/11/29 07:45:39;;;;;;;87.15;11.57;;;7.30;99.90;;;;;;5054850;28;20048;-77
2022/11/29 07:48:05;;;;;;;120.82;12.20;;;7.40;99.90;;;;;;5068251;28;20102;-75
2022/11/29 07:50:31;;;;;;;80.40;11.77;;;7.50;99.90;;;;;;5037899;28;20048;-74
2022/11/29 07:52:58;;;;;;;107.82;12.55;;;7.50;99.90;;;;;;5054459;28;20040;-74
2022/11/29 07:55:25;;;;;;;75.95;10.75;;;7.50;99.90;;;;;;5054031;28;20048;-75
2022/11/29 07:57:51;;;;;;;95.05;10.73;;;7.50;99.90;;;;;;5053909;28;20067;-76
2022/11/29 08:00:18;;;;;;;79.72;10.25;;;7.50;99.90;;;;;;5054436;28;20233;-74
2022/11/29 08:02:46;;;;;;;72.10;11.55;;;7.50;99.90;;;;;;5072293;28;20622;-75
2022/11/29 08:05:11;;;;;;;73.15;10.43;;;7.50;99.90;;;;;;5075905;28;20046;-75
2022/11/29 08:07:39;;;;;;;86.80;11.88;;;7.50;99.90;;;;;;5057902;28;20445;-75
2022/11/29 08:10:08;;;;;;;80.40;10.30;;;7.60;99.90;;;;;;5042586;28;20136;-75
2022/11/29 08:12:34;;;;;;;148.48;12.32;;;7.60;99.90;;;;;;5041560;28;20050;-75
2022/11/29 08:15:00;;;;;;;79.20;10.82;;;7.60;99.90;;;;;;5076067;28;20127;-75
2022/11/29 08:17:26;;;;;;;169.27;13.57;;;7.60;99.90;;;;;;5075956;28;20135;-75
2022/11/29 08:19:51;;;;;;;109.53;11.75;;;7.60;99.90;;;;;;5076675;28;20083;-73
2022/11/29 08:22:17;;;;;;;80.50;10.35;;;7.60;99.90;;;;;;5054434;28;20106;-78
2022/11/29 08:24:43;;;;;;;72.65;9.90;;;7.60;99.90;;;;;;5055568;28;20056;-75
2022/11/29 08:27:09;;;;;;;67.15;9.85;;;7.60;99.90;;;;;;5038435;28;20052;-77
2022/11/29 08:29:35;;;;;;;69.10;10.82;;;7.70;99.90;;;;;;5055930;28;20051;-75
2022/11/29 08:32:01;;;;;;;46.88;10.13;;;7.60;99.90;;;;;;5054707;28;20037;-75
2022/11/29 08:34:27;;;;;;;54.30;10.70;;;7.70;99.90;;;;;;5021580;28;20049;-74
2022/11/29 08:36:56;;;;;;;193.35;14.50;;;7.70;99.90;;;;;;5055532;28;20045;-75
2022/11/29 08:39:22;;;;;;;69.03;11.40;;;7.70;99.90;;;;;;5055640;28;20128;-75
2022/11/29 08:41:48;;;;;;;75.03;10.98;;;7.70;99.90;;;;;;5038267;28;20057;-74
2022/11/29 08:44:14;;;;;;;60.43;11.27;;;7.70;99.90;;;;;;5038864;28;20049;-75
2022/11/29 08:49:24;;;;;;;57.70;10.50;;;7.80;99.90;;;;;;5040660;28;20084;-73
2022/11/29 08:51:52;;;;;;;119.90;12.60;;;7.80;99.90;;;;;;5054146;28;20041;-74
2022/11/29 08:54:17;;;;;;;61.25;10.48;;;7.80;99.90;;;;;;5054572;28;20056;-75
2022/11/29 08:56:43;;;;;;;66.60;11.15;;;7.90;99.90;;;;;;5055294;28;20045;-74
2022/11/29 08:59:09;;;;;;;73.75;10.98;;;7.90;99.90;;;;;;5054074;28;20091;-73
2022/11/29 09:01:35;;;;;;;49.35;9.55;;;7.80;99.90;;;;;;5037551;28;20167;-74
2022/11/29 09:04:05;;;;;;;66.07;10.75;;;7.90;99.90;;;;;;5054057;28;20041;-74
2022/11/29 09:06:43;;;;;;;53.33;9.27;;;7.90;99.90;;;;;;5038767;28;20041;-74
2022/11/29 09:09:08;;;;;;;46.85;9.50;;;7.90;99.90;;;;;;5054937;28;20049;-73
2022/11/29 09:11:35;;;;;;;43.60;9.18;;;7.90;99.90;;;;;;5053677;28;20136;-73
2022/11/29 09:14:04;;;;;;;49.25;9.95;;;8.00;99.90;;;;;;5055072;28;20056;-73
2022/11/29 09:16:34;;;;;;;88.78;12.45;;;8.00;99.90;;;;;;5036564;28;20056;-73
2022/11/29 09:18:59;;;;;;;42.60;9.57;;;8.10;99.90;;;;;;5037733;28;20481;-74
2022/11/29 09:21:28;;;;;;;53.90;10.90;;;8.10;99.90;;;;;;5053950;28;20110;-74
2022/11/29 09:23:57;;;;;;;51.05;10.80;;;8.00;99.90;;;;;;5074772;28;20148;-74
2022/11/29 09:26:30;;;;;;;48.58;9.55;;;8.10;99.90;;;;;;5040355;28;20225;-74
2022/11/29 09:29:02;;;;;;;45.15;9.68;;;8.20;99.90;;;;;;5056899;28;20075;-73
2022/11/29 09:31:29;;;;;;;35.42;9.10;;;8.20;99.90;;;;;;5056704;28;20100;-73
2022/11/29 09:33:56;;;;;;;45.17;9.63;;;8.20;99.90;;;;;;5057566;28;20056;-74
2022/11/29 09:36:22;;;;;;;44.00;8.80;;;8.20;99.90;;;;;;5074677;28;20044;-73
2022/11/29 09:38:48;;;;;;;42.30;10.87;;;8.20;99.90;;;;;;5074813;28;20541;-74
2022/11/29 09:42:03;;;;;;;38.05;9.38;;;8.20;99.90;;;;;;5056708;28;20044;-73
2022/11/29 09:44:50;;;;;;;42.50;9.52;;;8.20;99.90;;;;;;5046439;28;20393;-73
2022/11/29 09:47:33;;;;;;;33.78;9.80;;;8.20;99.90;;;;;;5056861;28;20168;-73
2022/11/29 09:49:59;;;;;;;33.65;8.68;;;8.20;99.90;;;;;;5056631;28;20051;-74
2022/11/29 09:52:57;;;;;;;33.40;9.32;;;8.20;99.90;;;;;;5074589;28;20378;-75
2022/11/29 09:55:45;;;;;;;37.78;8.93;;;8.20;99.90;;;;;;5074268;28;20056;-75
2022/11/29 09:58:16;;;;;;;38.88;9.35;;;8.20;99.90;;;;;;5042782;28;20488;-74
2022/11/29 10:00:49;;;;;;;43.38;10.50;;;8.30;99.90;;;;;;5056136;28;20084;-74
2022/11/29 10:03:31;;;;;;;36.08;9.50;;;8.20;99.90;;;;;;5056958;28;20053;-75
2022/11/29 10:06:15;;;;;;;32.45;9.15;;;8.20;99.90;;;;;;5039510;28;20177;-75
2022/11/29 10:08:50;;;;;;;36.38;9.27;;;8.30;99.90;;;;;;5040944;28;20079;-74
2022/11/29 10:11:27;;;;;;;36.42;9.52;;;8.30;99.90;;;;;;5056065;28;20083;-74
2022/11/29 10:13:55;;;;;;;;;;;8.30;99.90;;;;;;5074709;28;20053;-74
2022/11/29 10:16:31;;;;;;;39.30;10.52;;;8.40;99.90;;;;;;5039378;28;19999;-74
2022/11/29 10:19:26;;;;;;;39.43;9.57;;;8.50;99.90;;;;;;5039741;28;20048;-73
2022/11/29 10:22:01;;;;;;;39.58;9.82;;;8.50;99.90;;;;;;5073542;28;20306;-73
2022/11/29 10:24:28;;;;;;;35.35;9.05;;;8.60;99.90;;;;;;5055601;28;20105;-74
2022/11/29 10:26:54;;;;;;;39.30;10.18;;;8.60;99.90;;;;;;5022021;28;20048;-73
2022/11/29 10:29:23;;;;;;;33.05;9.35;;;8.70;99.90;;;;;;5056058;28;20060;-74
2022/11/29 10:31:48;;;;;;;35.22;9.15;;;8.80;99.90;;;;;;5022590;28;20049;-75
2022/11/29 10:34:20;;;;;;;41.17;10.38;;;8.70;99.90;;;;;;5073556;28;20051;-73
2022/11/29 10:36:58;;;;;;;33.92;9.63;;;8.80;99.90;;;;;;5055415;28;20500;-74
2022/11/29 10:39:27;;;;;;;30.33;9.57;;;8.80;99.90;;;;;;5073292;28;20044;-74
2022/11/29 10:41:55;;;;;;;38.13;10.07;;;8.90;99.90;;;;;;5055547;28;20097;-73
2022/11/29 10:44:23;;;;;;;34.83;9.90;;;9.00;99.90;;;;;;5055713;28;20045;-74
2022/11/29 10:46:48;;;;;;;;;;;9.00;99.90;;;;;;5055918;28;20060;-74
2022/11/29 10:49:24;;;;;;;33.65;9.93;;;9.00;99.90;;;;;;5146800;27;1300954;-72
2022/11/29 10:51:50;;;;;;;32.58;8.70;;;9.00;99.90;;;;;;5170499;27;20057;-74
2022/11/29 10:54:37;;;;;;;30.90;9.63;;;9.00;99.90;;;;;;5144619;27;20043;-75
2022/11/29 10:57:12;;;;;;;34.13;10.38;;;9.00;99.90;;;;;;5134154;27;20078;-73
2022/11/29 10:59:37;;;;;;;35.85;9.63;;;9.00;99.90;;;;;;5149832;27;20043;-74
2022/11/29 11:02:05;;;;;;;34.22;9.50;;;9.00;99.90;;;;;;5164813;27;20043;-75
2022/11/29 11:04:41;;;;;;;39.80;9.63;;;9.10;99.90;;;;;;5149614;27;20491;-74
2022/11/29 11:07:40;;;;;;;26.63;8.98;;;9.20;99.90;;;;;;5131745;27;20043;-74
2022/11/29 11:10:26;;;;;;;29.48;8.98;;;9.20;99.90;;;;;;5159402;27;20062;-73
2022/11/29 11:13:17;;;;;;;38.55;9.02;;;9.30;99.90;;;;;;5161238;27;20042;-74
2022/11/29 11:15:44;;;;;;;30.42;8.93;;;9.40;99.90;;;;;;5143190;27;20055;-75
2022/11/29 11:18:19;;;;;;;27.23;8.50;;;9.40;99.90;;;;;;5114787;27;20114;-73
2022/11/29 11:20:52;;;;;;;33.15;9.05;;;9.50;99.90;;;;;;5131083;27;20086;-72
2022/11/29 11:23:24;;;;;;;28.88;8.40;;;9.50;99.90;;;;;;5131031;27;20043;-74
2022/11/29 11:26:03;;;;;;;33.10;9.45;;;9.40;99.90;;;;;;5149615;27;20095;-73
2022/11/29 11:28:56;;;;;;;25.65;7.88;;;9.50;99.90;;;;;;5114627;27;20051;-72
2022/11/29 11:31:38;;;;;;;32.65;8.45;;;9.50;99.90;;;;;;5130941;27;20051;-73
2022/11/29 11:34:34;;;;;;;20.55;6.55;;;9.50;99.90;;;;;;5134021;27;20271;-74
2022/11/29 11:37:20;;;;;;;24.30;7.50;;;9.50;99.90;;;;;;5151632;27;20034;-74
2022/11/29 11:39:49;;;;;;;26.42;8.55;;;9.40;99.90;;;;;;5164829;27;20291;-77
2022/11/29 11:42:39;;;;;;;22.42;6.68;;;9.40;99.90;;;;;;5151469;27;20042;-73
2022/11/29 11:45:11;;;;;;;27.52;8.27;;;9.40;99.90;;;;;;5151725;27;20043;-72
2022/11/29 11:47:52;;;;;;;30.13;8.10;;;9.40;99.90;;;;;;5146916;27;20638;-74
2022/11/29 11:50:33;;;;;;;27.58;8.32;;;9.50;99.90;;;;;;5132302;27;20504;-75
2022/11/29 11:53:06;;;;;;;29.80;8.18;;;9.50;99.90;;;;;;5123362;27;20043;-74
2022/11/29 11:55:39;;;;;;;27.83;7.97;;;9.50;99.90;;;;;;5152708;27;20038;-76
2022/11/29 11:58:11;;;;;;;25.92;7.63;;;9.50;99.90;;;;;;5134178;27;20125;-76
2022/11/29 12:00:40;;;;;;;30.02;8.25;;;9.60;99.90;;;;;;5159957;27;20043;-74
2022/11/29 12:03:17;;;;;;;30.33;8.30;;;9.60;99.90;;;;;;5129114;27;20494;-73
2022/11/29 12:05:45;;;;;;;23.05;7.40;;;9.60;99.90;;;;;;5120425;27;20058;-76
2022/11/29 12:08:12;;;;;;;28.13;7.97;;;9.50;99.90;;;;;;5139735;27;20141;-74
2022/11/29 12:10:39;;;;;;;21.25;7.82;;;9.50;99.90;;;;;;5154938;27;20121;-74
2022/11/29 12:13:12;;;;;;;30.20;8.03;;;9.60;99.90;;;;;;5098341;27;20050;-74
2022/11/29 12:15:39;;;;;;;25.85;7.57;;;9.60;99.90;;;;;;5126910;27;20303;-74
2022/11/29 12:18:13;;;;;;;25.00;8.15;;;9.60;99.90;;;;;;5129313;27;20047;-72
2022/11/29 12:21:00;;;;;;;24.55;8.35;;;9.60;99.90;;;;;;5135882;27;20117;-72
2022/11/29 12:23:31;;;;;;;;;;;9.60;99.90;;;;;;5129347;27;20050;-74
2022/11/29 12:26:04;;;;;;;25.77;7.75;;;9.60;99.90;;;;;;5138151;27;19919;-74
2022/11/29 12:28:40;;;;;;;22.52;7.70;;;;;;;;;;5119653;27;20035;-76
2022/11/29 12:31:34;;;;;;;28.42;8.50;;;9.60;99.90;;;;;;5134488;27;20086;-74
2022/11/29 12:34:21;;;;;;;31.50;8.10;;;9.60;99.90;;;;;;5145382;27;20042;-72
2022/11/29 12:37:10;;;;;;;23.70;8.27;;;9.60;99.90;;;;;;5150438;27;20053;-73
2022/11/29 12:39:51;;;;;;;29.48;7.75;;;9.60;99.90;;;;;;5116427;27;20046;-73
2022/11/29 12:42:34;;;;;;;26.20;7.80;;;9.60;99.90;;;;;;5134499;27;20070;-78
2022/11/29 12:45:30;;;;;;;26.92;8.02;;;9.50;99.90;;;;;;5118686;27;20053;-73
2022/11/29 12:48:24;;;;;;;25.95;7.97;;;9.40;99.90;;;;;;5118392;27;20055;-75
2022/11/29 12:51:04;;;;;;;24.52;8.18;;;9.40;99.90;;;;;;5137839;27;20292;-74
2022/11/29 12:53:33;;;;;;;26.90;8.00;;;9.40;99.90;;;;;;5138328;27;20053;-74
2022/11/29 12:56:18;;;;;;;27.30;8.27;;;9.40;99.90;;;;;;5149651;27;20039;-74
2022/11/29 12:58:43;;;;;;;33.75;9.52;;;9.50;99.90;;;;;;5117308;27;20083;-77
2022/11/29 13:01:46;;;;;;;27.50;8.93;;;9.50;99.90;;;;;;5135634;27;20513;-73
2022/11/29 13:04:44;;;;;;;27.85;8.85;;;9.50;99.90;;;;;;5136485;27;20043;-73
2022/11/29 13:07:28;;;;;;;28.20;8.82;;;9.40;99.90;;;;;;5137524;27;20055;-74
2022/11/29 13:10:15;;;;;;;27.50;8.93;;;9.50;99.90;;;;;;5172696;27;20137;-72
2022/11/29 13:12:50;;;;;;;26.55;8.55;;;9.40;99.90;;;;;;5125209;27;20042;-75
2022/11/29 13:15:41;;;;;;;28.73;7.75;;;9.40;99.90;;;;;;5135936;27;20399;-74
2022/11/29 13:18:21;;;;;;;29.15;7.55;;;9.40;99.90;;;;;;5135282;27;20047;-73
2022/11/29 13:21:10;;;;;;;26.48;7.95;;;9.40;99.90;;;;;;5115360;27;20062;-73
2022/11/29 13:23:42;;;;;;;28.67;8.38;;;9.30;99.90;;;;;;5138214;27;20375;-74
2022/11/29 13:26:11;;;;;;;28.80;8.07;;;9.30;99.90;;;;;;5145115;27;20142;-74
2022/11/29 13:28:40;;;;;;;28.58;7.70;;;9.30;99.90;;;;;;5149147;27;20043;-74
2022/11/29 13:31:12;;;;;;;27.90;7.85;;;9.30;99.90;;;;;;5141279;27;20031;-73
2022/11/29 13:34:00;;;;;;;25.65;7.80;;;9.30;99.90;;;;;;5121025;27;20043;-73
2022/11/29 13:36:44;;;;;;;28.45;8.05;;;9.30;99.90;;;;;;5116218;27;20047;-74